Time;durP1;ratioP1;P1;durP2;ratioP2;P2;SDS_P1;SDS_P2;PMS_P1;PMS_P2;Temp;Humidity;BMP_temperature;BMP_pressure;BME280_temperature;BME280_humidity;BME280_pressure;Samples;Min_cycle;Max_cycle;Signal;HPM_P1;HPM_P2
2021/04/17 00:01:58;;;;;;;5.90;3.65;;;6.80;60.20;;;;;;5095329;28;20357;-36
2021/04/17 00:04:25;;;;;;;6.00;3.08;;;6.90;59.60;;;;;;5094880;28;20077;-37
2021/04/17 00:06:51;;;;;;;5.10;3.88;;;6.80;59.80;;;;;;5094510;28;20034;-36
2021/04/17 00:09:22;;;;;;;7.22;3.60;;;6.80;60.20;;;;;;5093903;28;20024;-37
2021/04/17 00:11:49;;;;;;;7.00;3.58;;;6.80;60.30;;;;;;5094214;28;20032;-36
2021/04/17 00:14:21;;;;;;;6.20;4.18;;;6.80;60.40;;;;;;5094253;28;20502;-36
2021/04/17 00:16:47;;;;;;;5.47;3.28;;;6.80;60.40;;;;;;5093019;28;20366;-35
2021/04/17 00:19:13;;;;;;;9.90;4.68;;;6.70;60.90;;;;;;5094213;28;20091;-36
2021/04/17 00:21:39;;;;;;;5.85;2.88;;;6.70;61.10;;;;;;5093140;28;20028;-36
2021/04/17 00:24:06;;;;;;;11.50;4.10;;;6.70;61.00;;;;;;5094372;28;20032;-37
2021/04/17 00:26:33;;;;;;;5.70;3.83;;;6.70;61.10;;;;;;5094030;28;20361;-37
2021/04/17 00:28:59;;;;;;;4.78;3.05;;;6.60;61.20;;;;;;5094347;28;20442;-35
2021/04/17 00:31:25;;;;;;;5.97;3.00;;;6.60;61.30;;;;;;5093822;28;20028;-36
2021/04/17 00:33:51;;;;;;;4.75;3.22;;;6.70;61.40;;;;;;5094146;28;20024;-36
2021/04/17 00:36:16;;;;;;;5.55;3.85;;;6.60;61.40;;;;;;5093977;28;20016;-36
2021/04/17 00:38:42;;;;;;;14.05;3.88;;;6.50;61.80;;;;;;5092734;28;20095;-36
2021/04/17 00:41:08;;;;;;;4.97;3.10;;;6.50;62.00;;;;;;5094837;28;20488;-36
2021/04/17 00:43:33;;;;;;;9.50;4.03;;;6.40;62.20;;;;;;5094214;28;20349;-37
2021/04/17 00:45:59;;;;;;;5.68;2.88;;;6.40;62.40;;;;;;5093929;28;20024;-36
2021/04/17 00:48:25;;;;;;;6.07;3.17;;;6.40;62.30;;;;;;5093727;28;20069;-36
2021/04/17 00:50:51;;;;;;;7.38;3.50;;;6.30;62.60;;;;;;5093713;28;20488;-37
2021/04/17 00:53:17;;;;;;;8.43;3.30;;;6.40;62.30;;;;;;5093717;28;20031;-37
2021/04/17 00:55:43;;;;;;;5.30;3.47;;;6.30;62.90;;;;;;5093637;28;20379;-37
2021/04/17 00:58:09;;;;;;;4.32;2.85;;;6.30;62.90;;;;;;5093516;28;20024;-37
2021/04/17 01:00:37;;;;;;;5.40;4.38;;;6.30;62.90;;;;;;5093888;28;20101;-37
2021/04/17 01:03:23;;;;;;;6.53;3.22;;;6.30;62.80;;;;;;5093853;28;20024;-37
2021/04/17 01:05:53;;;;;;;6.78;3.33;;;6.30;62.90;;;;;;5093869;28;20463;-37
2021/04/17 01:08:41;;;;;;;5.13;2.97;;;6.30;63.10;;;;;;5093510;28;20175;-37
2021/04/17 01:11:12;;;;;;;6.63;3.67;;;6.20;63.20;;;;;;5092044;28;20072;-37
2021/04/17 01:13:42;;;;;;;5.32;3.53;;;6.20;63.20;;;;;;5093422;28;20143;-37
2021/04/17 01:16:08;;;;;;;4.88;3.65;;;6.20;63.30;;;;;;5093137;28;20498;-37
2021/04/17 01:18:35;;;;;;;8.93;3.40;;;6.10;63.40;;;;;;5093355;28;20060;-36
2021/04/17 01:21:01;;;;;;;6.97;2.83;;;6.10;63.40;;;;;;5092762;28;20463;-36
2021/04/17 01:23:36;;;;;;;7.55;3.40;;;6.10;63.50;;;;;;5093582;28;20099;-37
2021/04/17 01:26:23;;;;;;;4.45;3.22;;;6.20;63.40;;;;;;5093511;28;20020;-37
2021/04/17 01:28:52;;;;;;;5.75;3.90;;;5.90;64.00;;;;;;5093311;28;20054;-36
2021/04/17 01:31:24;;;;;;;5.88;3.40;;;5.90;64.00;;;;;;5093127;28;20153;-36
2021/04/17 01:33:52;;;;;;;6.53;3.78;;;5.90;64.00;;;;;;5093403;28;20030;-36
2021/04/17 01:36:20;;;;;;;5.65;3.50;;;5.90;64.00;;;;;;5093693;28;20051;-36
2021/04/17 01:38:55;;;;;;;4.35;3.03;;;5.80;64.30;;;;;;5092077;28;20439;-36
2021/04/17 01:41:28;;;;;;;8.75;3.38;;;5.90;64.10;;;;;;5093088;28;20043;-36
2021/04/17 01:43:56;;;;;;;6.93;3.50;;;5.80;64.30;;;;;;5093205;28;20503;-36
2021/04/17 01:46:24;;;;;;;8.80;3.63;;;5.90;63.90;;;;;;5093113;28;20103;-36
2021/04/17 01:48:54;;;;;;;10.57;3.50;;;5.80;64.20;;;;;;5092651;28;20130;-36
2021/04/17 01:51:21;;;;;;;8.93;4.15;;;5.80;64.30;;;;;;5092802;28;20122;-41
2021/04/17 01:53:49;;;;;;;6.30;3.60;;;5.70;64.90;;;;;;5092987;28;20361;-37
2021/04/17 01:56:19;;;;;;;7.13;4.07;;;5.70;64.70;;;;;;5093023;28;20409;-37
2021/04/17 01:58:46;;;;;;;9.32;4.15;;;5.60;65.00;;;;;;5092913;28;20021;-37
2021/04/17 02:01:12;;;;;;;13.55;3.88;;;5.80;64.60;;;;;;5093551;28;20024;-36
2021/04/17 02:03:38;;;;;;;6.60;3.65;;;5.70;64.60;;;;;;5093115;28;20029;-36
2021/04/17 02:06:04;;;;;;;7.28;3.38;;;5.60;65.10;;;;;;5092960;28;20031;-36
2021/04/17 02:08:34;;;;;;;8.07;3.53;;;5.60;64.90;;;;;;5091487;28;20036;-35
2021/04/17 02:11:00;;;;;;;7.63;3.78;;;5.60;64.90;;;;;;5093371;28;20127;-37
2021/04/17 02:13:26;;;;;;;5.45;3.45;;;5.70;64.70;;;;;;5093623;28;20534;-37
2021/04/17 02:15:52;;;;;;;6.38;3.17;;;5.70;64.60;;;;;;5093448;28;20020;-36
2021/04/17 02:18:58;;;;;;;5.43;3.90;;;5.70;64.80;;;;;;5093840;28;20039;-35
2021/04/17 02:21:38;;;;;;;8.10;3.55;;;5.70;64.50;;;;;;5090772;28;20397;-36
2021/04/17 02:24:04;;;;;;;;;;;5.80;64.30;;;;;;5091054;28;20035;-36
2021/04/17 02:26:30;;;;;;;5.40;3.40;;;5.60;64.80;;;;;;5091648;28;19995;-36
2021/04/17 02:28:56;;;;;;;7.05;3.83;;;5.50;65.50;;;;;;5092697;28;20056;-36
2021/04/17 02:31:24;;;;;;;9.85;3.80;;;5.50;65.30;;;;;;5092504;28;20028;-36
2021/04/17 02:33:50;;;;;;;8.55;3.72;;;5.50;65.80;;;;;;5095542;28;20043;-36
2021/04/17 02:36:15;;;;;;;9.25;4.28;;;5.40;65.80;;;;;;5096551;28;20099;-36
2021/04/17 02:38:41;;;;;;;7.22;3.42;;;5.30;66.20;;;;;;5096605;28;20491;-36
2021/04/17 02:41:07;;;;;;;11.75;4.32;;;5.30;66.50;;;;;;5096717;28;20503;-36
2021/04/17 02:43:33;;;;;;;8.90;3.50;;;5.30;66.60;;;;;;5096278;28;20035;-36
2021/04/17 02:45:58;;;;;;;7.95;4.85;;;5.30;66.40;;;;;;5095020;28;20046;-36
2021/04/17 02:48:24;;;;;;;8.15;3.35;;;5.20;66.60;;;;;;5096177;28;20131;-36
2021/04/17 02:50:50;;;;;;;7.38;3.72;;;5.20;66.90;;;;;;5094823;28;20028;-36
2021/04/17 02:53:15;;;;;;;8.30;3.95;;;5.30;66.70;;;;;;5096091;28;20025;-35
2021/04/17 02:55:41;;;;;;;8.27;4.18;;;5.10;67.40;;;;;;5095174;28;20020;-36
2021/04/17 02:58:07;;;;;;;6.75;4.00;;;5.20;66.90;;;;;;5096566;28;20042;-35
2021/04/17 03:00:32;;;;;;;5.05;3.08;;;5.00;67.50;;;;;;5095913;28;20433;-36
2021/04/17 03:02:58;;;;;;;9.48;4.18;;;5.00;67.70;;;;;;5095868;28;20099;-36
2021/04/17 03:05:23;;;;;;;6.75;3.83;;;5.10;67.50;;;;;;5096316;28;20030;-36
2021/04/17 03:07:49;;;;;;;9.25;4.65;;;5.00;67.60;;;;;;5096207;28;20070;-36
2021/04/17 03:10:16;;;;;;;4.93;3.22;;;5.00;67.60;;;;;;5095776;28;20024;-36
2021/04/17 03:12:42;;;;;;;12.95;4.22;;;5.00;67.40;;;;;;5095904;28;20115;-37
2021/04/17 03:15:09;;;;;;;8.77;4.95;;;5.00;67.30;;;;;;5095943;28;20059;-37
2021/04/17 03:17:35;;;;;;;13.13;4.82;;;4.90;67.70;;;;;;5095738;28;20052;-37
2021/04/17 03:20:00;;;;;;;10.05;5.35;;;4.80;68.10;;;;;;5095713;28;20020;-36
2021/04/17 03:22:26;;;;;;;8.75;4.63;;;4.80;68.10;;;;;;5095769;28;20024;-36
2021/04/17 03:24:52;;;;;;;8.82;4.18;;;4.70;68.50;;;;;;5094303;28;20024;-36
2021/04/17 03:27:17;;;;;;;10.02;4.25;;;4.80;68.40;;;;;;5095805;28;20036;-36
2021/04/17 03:29:43;;;;;;;7.55;3.78;;;4.80;68.00;;;;;;5095576;28;20024;-36
2021/04/17 03:32:09;;;;;;;8.98;4.38;;;4.80;67.80;;;;;;5095449;28;20467;-37
2021/04/17 03:34:34;;;;;;;7.25;4.35;;;4.80;67.90;;;;;;5095714;28;20023;-36
2021/04/17 03:37:01;;;;;;;8.13;3.95;;;4.80;67.90;;;;;;5094056;28;20027;-37
2021/04/17 03:39:26;;;;;;;12.77;3.83;;;4.80;68.00;;;;;;5095297;28;20024;-37
2021/04/17 03:41:52;;;;;;;7.35;4.25;;;4.70;68.40;;;;;;5095581;28;20107;-40
2021/04/17 03:44:18;;;;;;;10.02;4.25;;;4.60;68.80;;;;;;5094325;28;20034;-36
2021/04/17 03:46:44;;;;;;;8.50;4.65;;;4.60;68.60;;;;;;5095223;28;20581;-36
2021/04/17 03:49:10;;;;;;;10.68;5.00;;;4.70;68.50;;;;;;5095046;28;20127;-36
2021/04/17 03:51:35;;;;;;;8.55;4.53;;;4.70;68.30;;;;;;5095150;28;20036;-37
2021/04/17 03:54:01;;;;;;;5.85;4.15;;;4.70;68.50;;;;;;5095225;28;20043;-37
2021/04/17 03:56:27;;;;;;;8.27;4.28;;;4.60;68.80;;;;;;5095105;28;20349;-37
2021/04/17 03:58:52;;;;;;;8.25;4.55;;;4.50;69.10;;;;;;5095176;28;20028;-37
2021/04/17 04:01:18;;;;;;;7.05;4.07;;;4.50;69.10;;;;;;5094804;28;20024;-37
2021/04/17 04:03:43;;;;;;;7.07;3.90;;;4.50;69.20;;;;;;5095035;28;20077;-37
2021/04/17 04:06:09;;;;;;;10.00;4.10;;;4.50;69.00;;;;;;5094750;28;20036;-37
2021/04/17 04:08:35;;;;;;;13.05;4.38;;;4.40;69.40;;;;;;5094858;28;20028;-37
2021/04/17 04:11:01;;;;;;;7.72;4.10;;;4.40;69.40;;;;;;5095230;28;20518;-37
2021/04/17 04:13:27;;;;;;;8.63;4.35;;;4.30;69.60;;;;;;5094929;28;20050;-36
2021/04/17 04:15:52;;;;;;;8.40;4.80;;;4.40;69.40;;;;;;5094770;28;20024;-36
2021/04/17 04:18:18;;;;;;;15.20;4.93;;;4.30;69.60;;;;;;5094534;28;20027;-37
2021/04/17 04:20:43;;;;;;;15.15;4.35;;;4.30;69.90;;;;;;5094602;28;20052;-38
2021/04/17 04:23:09;;;;;;;8.63;3.80;;;4.30;69.80;;;;;;5094470;28;20069;-36
2021/04/17 04:25:35;;;;;;;11.63;4.22;;;4.30;69.70;;;;;;5094623;28;20028;-36
2021/04/17 04:28:01;;;;;;;5.68;3.90;;;4.30;69.80;;;;;;5076255;28;20016;-36
2021/04/17 04:30:27;;;;;;;9.85;4.55;;;4.30;69.90;;;;;;5094325;28;20024;-37
2021/04/17 04:32:53;;;;;;;11.02;3.78;;;4.30;70.00;;;;;;5092962;28;20024;-36
2021/04/17 04:35:19;;;;;;;6.60;4.28;;;4.30;69.80;;;;;;5094493;28;20030;-36
2021/04/17 04:37:45;;;;;;;8.73;4.72;;;4.30;69.90;;;;;;5076124;28;20035;-36
2021/04/17 04:40:12;;;;;;;9.73;4.72;;;4.30;69.60;;;;;;5094127;28;20016;-36
2021/04/17 04:42:38;;;;;;;8.80;4.47;;;4.30;69.90;;;;;;5094419;28;20040;-36
2021/04/17 04:45:05;;;;;;;8.57;4.75;;;4.20;70.10;;;;;;5094661;28;20349;-36
2021/04/17 04:47:31;;;;;;;12.88;4.63;;;4.30;70.10;;;;;;5093914;28;20035;-36
2021/04/17 04:49:57;;;;;;;9.63;4.38;;;4.30;69.80;;;;;;5094380;28;20491;-36
2021/04/17 04:52:23;;;;;;;6.35;3.97;;;4.30;69.70;;;;;;5093878;28;20450;-36
2021/04/17 04:54:49;;;;;;;9.32;4.78;;;4.30;69.70;;;;;;5094201;28;20024;-36
2021/04/17 04:57:15;;;;;;;10.82;4.32;;;4.30;69.70;;;;;;5093655;28;20110;-36
2021/04/17 04:59:41;;;;;;;6.25;4.10;;;4.40;69.70;;;;;;5094018;28;20070;-36
2021/04/17 05:02:07;;;;;;;5.95;3.78;;;4.30;69.60;;;;;;5092591;28;20032;-36
2021/04/17 05:04:32;;;;;;;6.28;3.92;;;4.30;69.80;;;;;;5094064;28;20053;-36
2021/04/17 05:06:58;;;;;;;12.25;4.22;;;4.30;69.90;;;;;;5094006;28;20024;-36
2021/04/17 05:09:23;;;;;;;8.38;4.68;;;4.30;70.20;;;;;;5093593;28;20107;-36
2021/04/17 05:11:49;;;;;;;10.57;3.47;;;4.20;70.30;;;;;;5093455;28;20529;-39
2021/04/17 05:14:15;;;;;;;9.15;4.03;;;4.30;70.30;;;;;;5093637;28;20069;-36
2021/04/17 05:16:40;;;;;;;6.97;3.90;;;4.40;69.70;;;;;;5093570;28;20020;-35
2021/04/17 05:19:06;;;;;;;9.15;4.70;;;4.30;70.00;;;;;;5093505;28;20047;-35
2021/04/17 05:21:32;;;;;;;10.65;4.55;;;4.50;69.70;;;;;;5093378;28;20024;-35
2021/04/17 05:23:58;;;;;;;8.70;3.88;;;4.40;69.60;;;;;;5092928;28;20024;-35
2021/04/17 05:26:24;;;;;;;9.77;4.38;;;4.40;69.70;;;;;;5093370;28;20031;-37
2021/04/17 05:28:50;;;;;;;7.80;4.00;;;4.40;69.70;;;;;;5093338;28;20314;-37
2021/04/17 05:31:15;;;;;;;10.82;4.35;;;4.40;69.90;;;;;;5093598;28;20028;-36
2021/04/17 05:33:41;;;;;;;13.15;5.00;;;4.50;69.90;;;;;;5093363;28;20024;-35
2021/04/17 05:36:07;;;;;;;13.90;3.88;;;4.50;69.80;;;;;;5093352;28;20016;-37
2021/04/17 05:38:33;;;;;;;10.60;4.60;;;4.60;70.00;;;;;;5093375;28;20464;-35
2021/04/17 05:40:59;;;;;;;7.25;4.60;;;4.70;69.60;;;;;;5093241;28;20055;-35
2021/04/17 05:43:24;;;;;;;10.70;5.00;;;4.80;69.10;;;;;;5093589;28;20028;-36
2021/04/17 05:45:50;;;;;;;10.40;4.80;;;4.80;69.20;;;;;;5093770;28;20490;-35
2021/04/17 05:48:16;;;;;;;11.55;5.07;;;4.80;69.30;;;;;;5093456;28;20488;-36
2021/04/17 05:50:41;;;;;;;9.63;5.65;;;4.80;69.10;;;;;;5093325;28;20032;-36
2021/04/17 05:53:07;;;;;;;7.22;4.20;;;4.90;68.80;;;;;;5093174;28;20494;-36
2021/04/17 05:55:33;;;;;;;12.65;3.50;;;4.90;68.70;;;;;;5093083;28;20024;-36
2021/04/17 05:57:58;;;;;;;7.57;3.97;;;4.90;68.80;;;;;;5093171;28;20020;-36
2021/04/17 06:00:24;;;;;;;15.43;5.03;;;4.90;69.20;;;;;;5093346;28;20107;-36
2021/04/17 06:02:54;;;;;;;9.27;4.35;;;5.00;68.80;;;;;;5092923;28;20444;-36
2021/04/17 06:05:21;;;;;;;12.98;4.20;;;5.30;68.00;;;;;;5093217;28;20513;-36
2021/04/17 06:07:46;;;;;;;12.15;4.95;;;5.10;68.50;;;;;;5094384;28;20062;-36
2021/04/17 06:10:13;;;;;;;6.60;3.90;;;5.20;68.60;;;;;;5097459;28;20059;-36
2021/04/17 06:12:38;;;;;;;11.23;5.47;;;5.10;68.40;;;;;;5097203;28;20035;-36
2021/04/17 06:15:05;;;;;;;4.80;3.78;;;5.20;68.60;;;;;;5096615;28;20016;-36
2021/04/17 06:17:31;;;;;;;7.57;4.38;;;5.30;68.10;;;;;;5096936;28;20472;-36
2021/04/17 06:19:56;;;;;;;8.40;4.30;;;5.30;68.10;;;;;;5096770;28;20091;-36
2021/04/17 06:22:22;;;;;;;5.97;3.95;;;5.30;68.10;;;;;;5096668;28;20045;-36
2021/04/17 06:24:48;;;;;;;9.70;4.95;;;5.30;68.30;;;;;;5096727;28;20035;-36
2021/04/17 06:27:13;;;;;;;9.98;3.97;;;5.40;67.60;;;;;;5096689;28;20030;-36
2021/04/17 06:29:39;;;;;;;7.20;3.45;;;5.40;67.80;;;;;;5097052;28;20102;-36
2021/04/17 06:32:05;;;;;;;9.52;4.30;;;5.40;67.80;;;;;;5096368;28;20044;-36
2021/04/17 06:34:31;;;;;;;8.15;3.75;;;5.40;67.70;;;;;;5096786;28;20108;-37
2021/04/17 06:36:57;;;;;;;7.18;3.80;;;5.50;67.90;;;;;;5096150;28;20028;-36
2021/04/17 06:39:23;;;;;;;10.10;4.25;;;5.80;67.10;;;;;;5096034;28;20424;-36
2021/04/17 06:41:52;;;;;;;8.57;4.07;;;5.80;67.00;;;;;;5095996;28;20024;-36
2021/04/17 06:44:20;;;;;;;8.27;3.25;;;5.90;66.60;;;;;;5094838;28;20115;-36
2021/04/17 06:46:47;;;;;;;8.20;4.20;;;6.00;66.70;;;;;;5096192;28;20490;-36
2021/04/17 06:49:13;;;;;;;15.63;3.88;;;6.10;66.30;;;;;;5095983;28;20165;-36
2021/04/17 06:51:44;;;;;;;6.57;3.70;;;6.20;66.20;;;;;;5096566;28;20536;-36
2021/04/17 06:54:12;;;;;;;11.07;3.70;;;6.30;66.00;;;;;;5096307;28;20491;-36
2021/04/17 06:56:39;;;;;;;9.35;3.80;;;6.30;65.60;;;;;;5095606;28;20111;-36
2021/04/17 06:59:05;;;;;;;12.75;4.32;;;6.40;65.40;;;;;;5095867;28;20460;-36
2021/04/17 07:01:31;;;;;;;8.93;4.40;;;6.60;65.00;;;;;;5096224;28;20028;-36
2021/04/17 07:03:58;;;;;;;8.88;3.22;;;6.70;64.80;;;;;;5096080;28;20357;-36
2021/04/17 07:06:24;;;;;;;11.18;4.38;;;6.90;64.20;;;;;;5095795;28;20028;-36
2021/04/17 07:08:50;;;;;;;6.50;3.45;;;7.00;63.90;;;;;;5095900;28;20394;-36
2021/04/17 07:11:16;;;;;;;7.53;4.00;;;7.20;62.90;;;;;;5095842;28;20048;-36
2021/04/17 07:14:06;;;;;;;12.68;4.70;;;7.30;62.40;;;;;;5096141;28;20016;-36
2021/04/17 07:16:31;;;;;;;10.25;4.38;;;7.30;62.70;;;;;;5095823;28;20071;-36
2021/04/17 07:18:57;;;;;;;8.60;4.32;;;7.40;62.30;;;;;;5095501;28;20028;-36
2021/04/17 07:21:26;;;;;;;7.85;3.97;;;7.60;61.70;;;;;;5093935;28;20043;-36
2021/04/17 07:23:53;;;;;;;10.70;3.78;;;7.80;61.30;;;;;;5095338;28;20024;-36
2021/04/17 07:26:21;;;;;;;14.95;4.35;;;7.70;61.00;;;;;;5095539;28;20062;-36
2021/04/17 07:28:56;;;;;;;8.77;4.15;;;7.50;61.10;;;;;;5094490;28;20078;-36
2021/04/17 07:31:24;;;;;;;7.93;3.65;;;7.30;61.50;;;;;;5095551;28;20490;-36
2021/04/17 07:33:50;;;;;;;10.80;3.40;;;7.40;61.80;;;;;;5095225;28;20081;-36
2021/04/17 07:36:16;;;;;;;9.68;3.53;;;7.40;61.00;;;;;;5095135;28;20028;-36
2021/04/17 07:38:42;;;;;;;7.50;3.85;;;7.50;61.20;;;;;;5095703;28;20028;-36
2021/04/17 07:41:16;;;;;;;11.45;4.35;;;7.70;61.00;;;;;;5094221;28;20379;-36
2021/04/17 07:43:48;;;;;;;14.38;4.35;;;8.00;59.80;;;;;;5093764;28;20058;-36
2021/04/17 07:46:25;;;;;;;6.50;3.13;;;8.10;59.40;;;;;;5095113;28;20536;-37
2021/04/17 07:49:08;;;;;;;8.77;3.55;;;8.40;58.40;;;;;;5094807;28;20044;-38
2021/04/17 07:51:59;;;;;;;15.85;4.65;;;8.50;57.90;;;;;;5095102;28;20028;-36
2021/04/17 07:54:26;;;;;;;7.53;3.47;;;8.80;57.20;;;;;;5094867;28;20024;-37
2021/04/17 07:56:52;;;;;;;12.23;3.75;;;8.90;55.10;;;;;;5094871;28;20106;-37
2021/04/17 07:59:20;;;;;;;8.15;3.63;;;8.70;55.80;;;;;;5094869;28;20066;-37
2021/04/17 08:01:48;;;;;;;7.00;3.15;;;8.80;54.70;;;;;;5094895;28;20043;-44
2021/04/17 08:04:20;;;;;;;7.45;3.10;;;8.90;54.20;;;;;;5094928;28;20032;-38
2021/04/17 08:06:46;;;;;;;9.63;4.05;;;9.40;53.00;;;;;;5093493;28;20024;-37
2021/04/17 08:09:12;;;;;;;6.85;3.58;;;9.30;53.50;;;;;;5093342;28;20113;-37
2021/04/17 08:11:37;;;;;;;6.43;4.05;;;9.30;53.10;;;;;;5094367;28;20027;-37
2021/04/17 08:14:03;;;;;;;10.68;3.40;;;9.20;53.90;;;;;;5094471;28;20431;-36
2021/04/17 08:16:28;;;;;;;6.88;3.50;;;9.50;53.50;;;;;;5094112;28;20024;-36
2021/04/17 08:18:54;;;;;;;7.63;3.70;;;9.80;52.60;;;;;;5094219;28;20435;-36
2021/04/17 08:21:21;;;;;;;11.55;3.25;;;10.10;51.80;;;;;;5093114;28;20028;-41
2021/04/17 08:23:50;;;;;;;5.43;3.30;;;10.20;51.70;;;;;;5094632;28;20035;-37
2021/04/17 08:26:17;;;;;;;7.78;4.60;;;10.70;49.80;;;;;;5093191;28;20060;-38
2021/04/17 08:28:44;;;;;;;11.43;3.75;;;11.30;47.50;;;;;;5094094;28;20059;-37
2021/04/17 08:31:33;;;;;;;6.22;3.33;;;11.30;46.80;;;;;;5093795;28;20042;-37
2021/04/17 08:34:04;;;;;;;8.77;3.00;;;11.10;47.00;;;;;;5094506;28;20020;-38
2021/04/17 08:36:31;;;;;;;10.18;3.15;;;10.70;48.50;;;;;;5094031;28;20024;-38
2021/04/17 08:38:57;;;;;;;7.57;3.50;;;11.20;47.40;;;;;;5094048;28;20024;-41
2021/04/17 08:41:49;;;;;;;10.52;4.45;;;11.30;46.40;;;;;;5093906;28;20336;-37
2021/04/17 08:44:24;;;;;;;6.20;2.80;;;11.40;45.40;;;;;;5093777;28;20032;-37
2021/04/17 08:46:50;;;;;;;4.68;2.58;;;11.30;45.70;;;;;;5094457;28;20498;-36
2021/04/17 08:49:21;;;;;;;9.15;4.35;;;11.00;46.30;;;;;;5093740;28;20047;-36
2021/04/17 08:51:47;;;;;;;9.32;2.88;;;10.80;46.40;;;;;;5093268;28;20133;-36
2021/04/17 08:54:15;;;;;;;8.25;2.90;;;10.80;47.90;;;;;;5093428;28;20038;-37
2021/04/17 08:56:44;;;;;;;7.28;3.58;;;11.10;47.10;;;;;;5092873;28;20054;-37
2021/04/17 08:59:10;;;;;;;8.80;4.43;;;11.70;45.30;;;;;;5092761;28;20077;-37
2021/04/17 09:01:43;;;;;;;9.27;5.38;;;12.30;43.90;;;;;;5093899;28;20048;-37
2021/04/17 09:04:10;;;;;;;12.90;3.50;;;12.30;43.00;;;;;;5093935;28;20038;-37
2021/04/17 09:06:44;;;;;;;5.90;3.42;;;12.20;43.80;;;;;;5093731;28;20103;-37
2021/04/17 09:09:16;;;;;;;8.52;3.20;;;12.10;44.60;;;;;;5093794;28;20035;-37
2021/04/17 09:11:43;;;;;;;4.32;2.88;;;12.70;43.40;;;;;;5093480;28;20024;-37
2021/04/17 09:14:32;;;;;;;5.60;2.75;;;12.80;41.40;;;;;;5093391;28;20379;-36
2021/04/17 09:17:03;;;;;;;10.98;3.53;;;12.00;43.00;;;;;;5093571;28;20435;-36
2021/04/17 09:19:38;;;;;;;6.80;2.63;;;12.30;42.60;;;;;;5093230;28;20030;-38
2021/04/17 09:22:26;;;;;;;11.75;3.15;;;13.30;41.10;;;;;;5092879;28;20120;-38
2021/04/17 09:24:56;;;;;;;7.65;3.25;;;12.80;40.70;;;;;;5093054;28;20028;-36
2021/04/17 09:27:34;;;;;;;6.07;2.00;;;12.80;41.00;;;;;;5093413;28;20078;-37
2021/04/17 09:30:04;;;;;;;4.43;2.25;;;12.90;39.30;;;;;;5091981;28;20032;-37
2021/04/17 09:32:40;;;;;;;6.35;2.60;;;12.00;42.00;;;;;;5093070;28;20161;-37
2021/04/17 09:35:25;;;;;;;4.35;3.30;;;11.60;42.60;;;;;;5091610;28;20029;-37
2021/04/17 09:38:05;;;;;;;6.68;2.85;;;11.40;42.90;;;;;;5093188;28;20069;-38
2021/04/17 09:40:32;;;;;;;8.05;3.38;;;11.40;42.90;;;;;;5092834;28;20023;-37
2021/04/17 09:42:58;;;;;;;7.15;2.30;;;11.50;43.00;;;;;;5094448;28;20032;-37
2021/04/17 09:45:36;;;;;;;5.85;3.20;;;11.70;43.60;;;;;;5097373;28;20090;-36
2021/04/17 09:48:05;;;;;;;8.10;3.20;;;11.80;43.50;;;;;;5097213;28;20050;-36
2021/04/17 09:50:32;;;;;;;5.97;2.70;;;11.80;43.70;;;;;;5095918;28;20024;-36
2021/04/17 09:53:16;;;;;;;6.22;3.17;;;11.80;43.80;;;;;;5097067;28;20036;-37
2021/04/17 09:55:48;;;;;;;6.38;3.88;;;12.10;43.10;;;;;;5096040;28;20194;-37
2021/04/17 09:58:29;;;;;;;8.52;3.70;;;12.20;42.10;;;;;;5095399;28;20020;-38
2021/04/17 10:01:03;;;;;;;6.03;2.85;;;12.60;40.80;;;;;;5096159;28;20020;-38
2021/04/17 10:03:31;;;;;;;9.13;3.97;;;13.00;40.00;;;;;;5095988;28;20384;-37
2021/04/17 10:05:58;;;;;;;9.52;2.95;;;13.20;39.50;;;;;;5094962;28;20429;-37
2021/04/17 10:08:35;;;;;;;9.73;3.00;;;12.80;40.50;;;;;;5096891;28;20019;-37
2021/04/17 10:11:04;;;;;;;6.07;3.17;;;12.40;40.70;;;;;;5096516;28;20084;-37
2021/04/17 10:13:38;;;;;;;6.97;3.55;;;12.30;41.00;;;;;;5095032;28;20019;-38
2021/04/17 10:16:05;;;;;;;10.90;4.15;;;12.10;41.40;;;;;;5095173;28;20480;-37
2021/04/17 10:18:31;;;;;;;5.32;3.25;;;12.60;40.80;;;;;;5096413;28;20473;-35
2021/04/17 10:20:57;;;;;;;4.55;2.80;;;13.00;39.90;;;;;;5095949;28;20146;-38
2021/04/17 10:23:28;;;;;;;5.95;3.65;;;12.40;41.30;;;;;;5094860;28;20020;-37
2021/04/17 10:26:03;;;;;;;11.32;3.80;;;12.50;41.70;;;;;;5095079;28;20016;-37
2021/04/17 10:28:30;;;;;;;6.78;3.13;;;13.20;39.60;;;;;;5096567;28;20490;-37
2021/04/17 10:31:23;;;;;;;9.52;3.22;;;13.30;38.80;;;;;;5095076;28;20020;-37
2021/04/17 10:33:49;;;;;;;12.00;4.15;;;13.70;37.70;;;;;;5093951;28;20032;-37
2021/04/17 10:36:20;;;;;;;7.43;3.53;;;13.30;39.00;;;;;;5094808;28;20115;-37
2021/04/17 10:38:46;;;;;;;8.82;2.97;;;13.90;37.50;;;;;;5096460;28;20095;-36
2021/04/17 10:41:24;;;;;;;4.72;2.88;;;13.60;37.80;;;;;;5096468;28;20118;-37
2021/04/17 10:44:10;;;;;;;7.72;2.97;;;13.10;39.90;;;;;;5096196;28;20046;-37
2021/04/17 10:46:50;;;;;;;7.15;2.47;;;13.30;37.90;;;;;;5094413;28;20028;-37
2021/04/17 10:49:31;;;;;;;5.07;2.40;;;13.10;37.10;;;;;;5095675;28;20044;-37
2021/04/17 10:51:57;;;;;;;5.03;2.58;;;12.60;37.60;;;;;;5096190;28;20024;-39
2021/04/17 10:54:24;;;;;;;4.50;2.88;;;12.80;37.90;;;;;;5095834;28;20024;-38
2021/04/17 10:57:02;;;;;;;4.85;2.47;;;12.90;37.20;;;;;;5095741;28;20024;-36
2021/04/17 10:59:48;;;;;;;2.72;1.58;;;12.80;34.60;;;;;;5095979;28;20392;-37
2021/04/17 11:02:14;;;;;;;5.95;1.58;;;12.70;32.90;;;;;;5095457;28;20050;-36
2021/04/17 11:04:46;;;;;;;3.00;1.55;;;13.30;31.70;;;;;;5094162;28;20032;-36
2021/04/17 11:07:11;;;;;;;3.28;1.80;;;13.50;32.60;;;;;;5095540;28;20406;-36
2021/04/17 11:09:46;;;;;;;3.63;1.67;;;12.80;31.30;;;;;;5095842;28;20032;-37
2021/04/17 11:12:26;;;;;;;5.60;1.83;;;13.10;32.00;;;;;;5095057;28;20039;-37
2021/04/17 11:14:52;;;;;;;5.63;1.88;;;12.80;32.70;;;;;;5095161;28;20059;-38
2021/04/17 11:17:19;;;;;;;5.35;1.40;;;12.70;32.30;;;;;;5094877;28;20051;-39
2021/04/17 11:19:45;;;;;;;3.33;1.42;;;12.50;30.90;;;;;;5095333;28;20039;-37
2021/04/17 11:22:16;;;;;;;3.00;1.65;;;12.70;31.30;;;;;;5095319;28;20028;-38
2021/04/17 11:25:04;;;;;;;5.90;2.65;;;12.80;32.50;;;;;;5095192;28;20051;-37
2021/04/17 11:27:32;;;;;;;5.40;2.00;;;12.60;33.10;;;;;;5095278;28;20040;-36
2021/04/17 11:29:58;;;;;;;7.85;2.50;;;12.60;33.60;;;;;;5095062;28;20057;-36
2021/04/17 11:32:26;;;;;;;6.45;2.38;;;12.60;34.20;;;;;;5094971;28;20440;-36
2021/04/17 11:34:52;;;;;;;5.47;2.00;;;12.50;35.60;;;;;;5094616;28;20025;-37
2021/04/17 11:37:18;;;;;;;2.95;1.92;;;12.20;36.10;;;;;;5094751;28;20024;-37
2021/04/17 11:39:44;;;;;;;3.95;1.30;;;12.30;36.70;;;;;;5094909;28;20043;-36
2021/04/17 11:42:11;;;;;;;4.28;1.95;;;12.30;36.20;;;;;;5094694;28;20051;-36
2021/04/17 11:44:37;;;;;;;7.50;2.33;;;12.50;35.80;;;;;;5095052;28;20020;-38
2021/04/17 11:47:03;;;;;;;2.38;1.55;;;12.70;34.00;;;;;;5095023;28;20361;-39
2021/04/17 11:49:29;;;;;;;5.45;2.28;;;12.70;34.60;;;;;;5094618;28;20050;-37
2021/04/17 11:51:54;;;;;;;4.20;2.28;;;13.10;34.90;;;;;;5094052;28;20038;-37
2021/04/17 11:54:20;;;;;;;5.60;2.40;;;12.90;35.60;;;;;;5093361;28;20103;-37
2021/04/17 11:56:46;;;;;;;3.72;2.28;;;13.20;36.10;;;;;;5094422;28;20025;-37
2021/04/17 11:59:11;;;;;;;9.98;3.88;;;13.70;34.90;;;;;;5094528;28;20016;-38
2021/04/17 12:01:37;;;;;;;2.97;1.90;;;13.70;35.40;;;;;;5095215;28;20028;-36
2021/04/17 12:04:03;;;;;;;6.38;2.85;;;13.60;34.40;;;;;;5095032;28;20024;-36
2021/04/17 12:06:29;;;;;;;4.88;2.78;;;13.40;35.20;;;;;;5094039;28;20031;-37
2021/04/17 12:08:58;;;;;;;3.78;1.98;;;13.90;34.00;;;;;;5094775;28;20028;-38
2021/04/17 12:11:23;;;;;;;4.18;2.00;;;13.20;35.70;;;;;;5094572;28;20379;-36
2021/04/17 12:13:50;;;;;;;10.07;3.15;;;13.40;35.60;;;;;;5093966;28;20031;-36
2021/04/17 12:16:15;;;;;;;4.13;2.15;;;13.00;37.20;;;;;;5094035;28;20020;-38
2021/04/17 12:18:41;;;;;;;10.35;2.97;;;13.30;37.20;;;;;;5094054;28;20020;-37
2021/04/17 12:21:07;;;;;;;3.65;2.10;;;13.30;37.30;;;;;;5094153;28;20081;-36
2021/04/17 12:23:33;;;;;;;6.82;2.33;;;13.00;37.20;;;;;;5093880;28;20414;-37
2021/04/17 12:25:59;;;;;;;5.38;1.92;;;12.80;37.90;;;;;;5094344;28;20024;-37
2021/04/17 12:28:25;;;;;;;4.80;2.42;;;12.80;37.10;;;;;;5093882;28;20031;-37
2021/04/17 12:30:55;;;;;;;7.20;2.17;;;12.90;37.30;;;;;;5094140;28;20063;-37
2021/04/17 12:33:21;;;;;;;8.30;2.83;;;13.40;35.80;;;;;;5094068;28;20032;-38
2021/04/17 12:35:47;;;;;;;3.85;1.90;;;13.60;35.20;;;;;;5093848;28;20468;-36
2021/04/17 12:38:13;;;;;;;3.90;2.20;;;13.80;34.20;;;;;;5092395;28;20077;-37
2021/04/17 12:40:39;;;;;;;5.07;2.00;;;13.80;34.00;;;;;;5093971;28;20062;-37
2021/04/17 12:43:07;;;;;;;4.20;2.15;;;13.50;34.50;;;;;;5093833;28;20506;-37
2021/04/17 12:45:33;;;;;;;6.38;2.67;;;12.80;35.20;;;;;;5094038;28;20028;-37
2021/04/17 12:47:59;;;;;;;2.83;1.80;;;12.30;37.00;;;;;;5093191;28;20401;-37
2021/04/17 12:50:26;;;;;;;6.28;2.35;;;12.20;36.30;;;;;;5093585;28;20126;-37
2021/04/17 12:52:52;;;;;;;6.80;1.83;;;11.80;35.60;;;;;;5092244;28;20495;-37
2021/04/17 12:55:18;;;;;;;4.68;1.90;;;11.80;36.30;;;;;;5093253;28;20020;-37
2021/04/17 12:57:44;;;;;;;5.45;2.47;;;11.90;36.40;;;;;;5093447;28;20031;-37